createdAt,value
2019-05-26T00:00:18.899Z,9.82
2019-05-26T00:02:47.410Z,10.05
2019-05-26T00:05:15.926Z,10.02
2019-05-26T00:07:44.430Z,10.00
2019-05-26T00:10:13.861Z,10.05
2019-05-26T00:12:42.668Z,10.16
2019-05-26T00:15:11.273Z,10.07
2019-05-26T00:17:39.709Z,10.14
2019-05-26T00:20:09.285Z,9.72
2019-05-26T00:22:37.790Z,9.25
2019-05-26T00:25:07.560Z,9.18
2019-05-26T00:27:36.018Z,9.12
2019-05-26T00:30:06.569Z,9.24
2019-05-26T00:32:34.983Z,9.35
2019-05-26T00:35:08.282Z,9.47
2019-05-26T00:37:48.679Z,9.37
2019-05-26T00:40:07.867Z,9.52
2019-05-26T00:42:36.390Z,9.41
2019-05-26T00:45:09.443Z,9.55
2019-05-26T00:47:37.867Z,9.63
2019-05-26T00:50:08.867Z,9.50
2019-05-26T00:52:37.656Z,9.47
2019-05-26T00:55:08.003Z,9.76
2019-05-26T00:57:36.780Z,9.75
2019-05-26T01:00:07.499Z,9.71
2019-05-26T01:02:35.912Z,9.61
2019-05-26T01:05:06.302Z,9.55
2019-05-26T01:07:34.775Z,9.43
2019-05-26T01:10:04.936Z,9.21
2019-05-26T01:12:33.387Z,9.27
2019-05-26T01:15:01.970Z,9.02
2019-05-26T01:17:30.400Z,9.12
2019-05-26T01:19:58.827Z,9.25
2019-05-26T01:22:27.404Z,9.21
2019-05-26T01:24:55.819Z,9.16
2019-05-26T01:27:24.246Z,9.13
2019-05-26T01:29:52.692Z,9.25
2019-05-26T01:32:21.112Z,9.19
2019-05-26T01:34:49.615Z,9.21
2019-05-26T01:37:18.306Z,8.83
2019-05-26T01:39:46.714Z,8.60
2019-05-26T01:42:15.131Z,8.56
2019-05-26T01:44:43.572Z,8.39
2019-05-26T01:47:12.015Z,8.29
2019-05-26T01:49:40.487Z,8.38
2019-05-26T01:52:08.892Z,8.56
2019-05-26T01:54:40.635Z,8.58
2019-05-26T01:57:07.558Z,8.50
2019-05-26T01:59:35.975Z,8.33
2019-05-26T02:02:04.761Z,8.29
2019-05-26T02:04:33.269Z,8.42
2019-05-26T02:07:01.732Z,8.50
2019-05-26T02:09:30.132Z,8.67
2019-05-26T02:11:58.549Z,8.75
2019-05-26T02:14:27.023Z,8.71
2019-05-26T02:16:55.483Z,8.38
2019-05-26T02:19:23.897Z,8.21
2019-05-26T02:21:52.449Z,8.12
2019-05-26T02:24:20.906Z,8.13
2019-05-26T02:26:49.341Z,8.15
2019-05-26T02:29:17.913Z,8.31
2019-05-26T02:31:46.359Z,8.13
2019-05-26T02:34:14.792Z,8.13
2019-05-26T02:36:43.229Z,7.98
2019-05-26T02:39:11.644Z,8.04
2019-05-26T02:41:40.142Z,7.98
2019-05-26T02:44:08.754Z,7.95
2019-05-26T02:46:37.186Z,8.12
2019-05-26T02:49:05.694Z,8.15
2019-05-26T02:51:34.133Z,7.99
2019-05-26T02:54:02.619Z,8.03
2019-05-26T02:56:31.214Z,7.92
2019-05-26T02:58:59.651Z,7.97
2019-05-26T03:01:28.749Z,7.91
2019-05-26T03:03:57.309Z,7.91
2019-05-26T03:06:28.161Z,7.96
2019-05-26T03:08:58.653Z,8.10
2019-05-26T03:11:29.710Z,7.97
2019-05-26T03:14:00.233Z,8.01
2019-05-26T03:16:31.310Z,7.87
2019-05-26T03:19:01.719Z,7.82
2019-05-26T03:21:33.007Z,7.79
2019-05-26T03:24:03.232Z,7.86
2019-05-26T03:26:31.850Z,7.68
2019-05-26T03:29:00.263Z,7.59
2019-05-26T03:31:28.788Z,7.61
2019-05-26T03:33:57.242Z,7.63
2019-05-26T03:36:25.716Z,7.53
2019-05-26T03:38:54.161Z,7.52
2019-05-26T03:41:22.590Z,7.44
2019-05-26T03:43:51.071Z,7.45
2019-05-26T03:46:20.519Z,7.39
2019-05-26T03:48:49.499Z,7.34
2019-05-26T03:51:17.990Z,7.41
2019-05-26T03:53:46.475Z,7.39
2019-05-26T03:56:14.915Z,7.37
2019-05-26T03:58:43.439Z,7.45
2019-05-26T04:01:11.960Z,7.46
2019-05-26T04:03:40.467Z,7.52
2019-05-26T04:06:09.017Z,7.52
2019-05-26T04:08:37.565Z,7.71
2019-05-26T04:11:06.090Z,7.69
2019-05-26T04:13:34.677Z,7.75
2019-05-26T04:16:03.166Z,7.79
2019-05-26T04:18:31.601Z,7.95
2019-05-26T04:21:00.046Z,8.13
2019-05-26T04:23:28.630Z,8.28
2019-05-26T04:25:57.115Z,8.39
2019-05-26T04:28:25.569Z,8.51
2019-05-26T04:30:54.028Z,8.65
2019-05-26T04:33:22.517Z,9.04
2019-05-26T04:35:50.956Z,8.86
2019-05-26T04:38:19.521Z,8.89
2019-05-26T04:40:48.001Z,8.85
2019-05-26T04:43:16.524Z,8.96
2019-05-26T04:45:45.049Z,9.13
2019-05-26T04:48:13.482Z,9.46
2019-05-26T04:50:42.036Z,9.62
2019-05-26T04:53:10.541Z,9.85
2019-05-26T04:55:38.964Z,10.05
2019-05-26T04:58:07.539Z,10.32
2019-05-26T05:00:35.960Z,10.05
2019-05-26T05:03:04.651Z,10.18
2019-05-26T05:05:33.164Z,10.39
2019-05-26T05:08:01.612Z,10.48
2019-05-26T05:10:41.967Z,10.57
2019-05-26T05:13:00.276Z,10.76
2019-05-26T05:15:28.765Z,10.96
2019-05-26T05:17:57.284Z,11.02
2019-05-26T05:20:25.773Z,11.05
2019-05-26T05:22:54.184Z,11.35
2019-05-26T05:25:22.776Z,11.44
2019-05-26T05:27:51.255Z,11.87
2019-05-26T05:30:19.796Z,11.64
2019-05-26T05:32:48.211Z,11.92
2019-05-26T05:35:17.596Z,12.17
2019-05-26T05:37:46.014Z,12.65
2019-05-26T05:40:16.204Z,12.98
2019-05-26T05:42:44.709Z,13.41
2019-05-26T05:45:13.465Z,13.84
2019-05-26T05:47:42.002Z,14.36
2019-05-26T05:50:11.197Z,14.45
2019-05-26T05:52:39.637Z,14.66
2019-05-26T05:55:09.201Z,15.07
2019-05-26T05:57:37.616Z,15.26
2019-05-26T06:00:07.499Z,15.53
2019-05-26T06:02:35.994Z,15.43
2019-05-26T06:05:07.267Z,15.31
2019-05-26T06:07:35.714Z,15.70
2019-05-26T06:10:07.182Z,16.04
2019-05-26T06:12:35.682Z,15.89
2019-05-26T06:15:07.087Z,16.21
2019-05-26T06:17:35.552Z,16.18
2019-05-26T06:20:05.612Z,16.33
2019-05-26T06:22:34.105Z,16.57
2019-05-26T06:25:02.665Z,16.97
2019-05-26T06:27:31.126Z,17.39
2019-05-26T06:29:59.618Z,17.59
2019-05-26T06:32:28.073Z,17.67
2019-05-26T06:34:56.497Z,17.14
2019-05-26T06:37:25.019Z,17.67
2019-05-26T06:39:53.468Z,17.84
2019-05-26T06:42:21.898Z,18.36
2019-05-26T06:44:53.836Z,18.30
2019-05-26T06:47:20.500Z,18.58
2019-05-26T06:49:48.963Z,18.84
2019-05-26T06:52:17.371Z,19.40
2019-05-26T06:54:45.890Z,19.79
2019-05-26T06:57:16.009Z,19.81
2019-05-26T06:59:44.462Z,20.02
2019-05-26T07:02:12.933Z,19.69
2019-05-26T07:04:41.431Z,20.13
2019-05-26T07:07:10.021Z,20.12
2019-05-26T07:09:38.468Z,20.73
2019-05-26T07:12:07.081Z,20.85
2019-05-26T07:14:35.527Z,21.09
2019-05-26T07:17:04.025Z,21.52
2019-05-26T07:19:32.477Z,21.91
2019-05-26T07:22:00.985Z,21.94
2019-05-26T07:24:29.749Z,22.25
2019-05-26T07:26:58.459Z,22.23
2019-05-26T07:29:27.026Z,22.45
2019-05-26T07:31:55.565Z,22.03
2019-05-26T07:34:24.039Z,22.37
2019-05-26T07:36:52.474Z,23.16
2019-05-26T07:39:20.970Z,23.16
2019-05-26T07:42:08.166Z,22.96
2019-05-26T07:44:19.686Z,23.60
2019-05-26T07:46:48.137Z,23.92
2019-05-26T07:49:16.564Z,23.95
2019-05-26T07:51:45.530Z,24.21
2019-05-26T07:54:24.992Z,24.90
2019-05-26T07:56:44.218Z,25.03
2019-05-26T07:59:12.777Z,25.27
2019-05-26T08:01:41.260Z,25.39
2019-05-26T08:04:09.747Z,25.74
2019-05-26T08:06:38.350Z,25.91
2019-05-26T08:09:08.569Z,26.56
2019-05-26T08:11:37.012Z,26.15
2019-05-26T08:14:05.518Z,27.09
2019-05-26T08:16:33.979Z,26.92
2019-05-26T08:19:02.433Z,26.98
2019-05-26T08:21:30.865Z,27.28
2019-05-26T08:23:59.384Z,27.50
2019-05-26T08:26:27.899Z,27.19
2019-05-26T08:28:56.371Z,27.16
2019-05-26T08:31:24.945Z,27.39
2019-05-26T08:33:53.418Z,27.80
2019-05-26T08:36:21.944Z,28.05
2019-05-26T08:38:50.427Z,27.67
2019-05-26T08:41:18.952Z,28.19
2019-05-26T08:43:47.380Z,27.83
2019-05-26T08:46:15.823Z,28.56
2019-05-26T08:48:44.280Z,29.06
2019-05-26T08:51:12.779Z,28.91
2019-05-26T08:53:41.997Z,28.74
2019-05-26T08:56:10.464Z,28.99
2019-05-26T08:58:38.880Z,29.61
2019-05-26T09:01:07.346Z,29.57
2019-05-26T09:03:35.818Z,29.06
2019-05-26T09:06:04.610Z,29.19
2019-05-26T09:08:33.054Z,29.38
2019-05-26T09:11:01.708Z,26.13
2019-05-26T09:13:30.216Z,28.85
2019-05-26T09:15:58.635Z,30.14
2019-05-26T09:18:27.177Z,30.14
2019-05-26T09:20:55.610Z,30.36
2019-05-26T09:23:24.078Z,30.74
2019-05-26T09:25:52.498Z,30.78
2019-05-26T09:28:20.939Z,31.23
2019-05-26T09:30:49.485Z,30.59
2019-05-26T09:33:17.969Z,30.32
2019-05-26T09:35:46.385Z,30.67
2019-05-26T09:38:14.842Z,31.39
2019-05-26T09:40:43.569Z,30.54
2019-05-26T09:43:16.084Z,28.96
2019-05-26T09:45:42.570Z,30.66
2019-05-26T09:48:11.194Z,30.74
2019-05-26T09:50:40.068Z,30.59
2019-05-26T09:53:08.901Z,30.68
2019-05-26T09:55:37.422Z,29.18
2019-05-26T09:58:05.960Z,30.13
2019-05-26T10:00:35.115Z,30.86
2019-05-26T10:03:03.660Z,30.56
2019-05-26T10:05:32.628Z,30.54
2019-05-26T10:08:02.253Z,29.76
2019-05-26T10:10:31.532Z,29.06
2019-05-26T10:13:00.260Z,28.00
2019-05-26T10:15:28.801Z,28.66
2019-05-26T10:17:57.236Z,29.36
2019-05-26T10:20:25.756Z,29.36
2019-05-26T10:22:54.317Z,25.08
2019-05-26T10:25:22.839Z,28.03
2019-05-26T10:27:51.373Z,29.06
2019-05-26T10:30:19.933Z,29.47
2019-05-26T10:32:48.391Z,29.57
2019-05-26T10:35:17.019Z,30.19
2019-05-26T10:37:45.455Z,29.43
2019-05-26T10:40:14.900Z,29.29
2019-05-26T10:42:43.308Z,30.12
2019-05-26T10:45:12.830Z,30.56
2019-05-26T10:47:41.324Z,31.26
2019-05-26T10:50:11.012Z,30.48
2019-05-26T10:52:39.514Z,29.39
2019-05-26T10:55:08.374Z,29.65
2019-05-26T10:57:37.126Z,30.05
2019-05-26T11:00:09.746Z,29.74
2019-05-26T11:02:38.399Z,29.96
2019-05-26T11:05:07.691Z,29.85
2019-05-26T11:07:36.132Z,29.14
2019-05-26T11:10:07.111Z,29.01
2019-05-26T11:12:35.678Z,29.28
2019-05-26T11:15:07.549Z,27.94
2019-05-26T11:17:36.069Z,27.81
2019-05-26T11:20:09.766Z,27.57
2019-05-26T11:22:38.393Z,27.08
2019-05-26T11:25:07.303Z,27.54
2019-05-26T11:27:35.858Z,28.09
2019-05-26T11:30:07.522Z,27.45
2019-05-26T11:32:36.094Z,26.36
2019-05-26T11:35:05.897Z,26.61
2019-05-26T11:37:34.346Z,26.68
2019-05-26T11:40:03.529Z,26.59
2019-05-26T11:42:32.028Z,26.40
2019-05-26T11:45:00.563Z,25.44
2019-05-26T11:47:29.073Z,25.91
2019-05-26T11:49:57.535Z,25.80
2019-05-26T11:52:26.088Z,25.96
2019-05-26T11:54:54.580Z,25.79
2019-05-26T11:57:23.085Z,25.64
2019-05-26T11:59:51.630Z,25.31
2019-05-26T12:02:20.217Z,24.84
2019-05-26T12:04:48.698Z,25.21
2019-05-26T12:07:17.122Z,25.30
2019-05-26T12:09:47.216Z,25.65
2019-05-26T12:12:15.687Z,25.59
2019-05-26T12:14:47.295Z,25.10
2019-05-26T12:17:15.971Z,25.04
2019-05-26T12:19:44.429Z,25.07
2019-05-26T12:22:12.950Z,24.94
2019-05-26T12:24:41.942Z,24.81
2019-05-26T12:27:10.366Z,24.76
2019-05-26T12:29:38.877Z,24.54
2019-05-26T12:32:07.357Z,23.62
2019-05-26T12:34:35.888Z,24.23
2019-05-26T12:37:04.454Z,24.10
2019-05-26T12:39:33.015Z,23.88
2019-05-26T12:42:01.679Z,24.26
2019-05-26T12:44:30.144Z,24.09
2019-05-26T12:46:58.632Z,24.02
2019-05-26T12:49:28.035Z,23.74
2019-05-26T12:51:56.558Z,23.67
2019-05-26T12:54:25.071Z,23.22
2019-05-26T12:56:53.645Z,23.86
2019-05-26T12:59:22.162Z,23.10
2019-05-26T13:01:50.610Z,23.35
2019-05-26T13:04:19.067Z,23.72
2019-05-26T13:06:47.559Z,23.81
2019-05-26T13:09:16.226Z,24.24
2019-05-26T13:11:46.317Z,24.52
2019-05-26T13:14:14.877Z,24.77
2019-05-26T13:16:43.368Z,24.64
2019-05-26T13:19:11.790Z,24.56
2019-05-26T13:21:40.262Z,24.33
2019-05-26T13:24:08.854Z,24.17
2019-05-26T13:26:37.384Z,23.79
2019-05-26T13:29:05.914Z,24.45
2019-05-26T13:31:34.365Z,24.71
2019-05-26T13:34:02.892Z,24.46
2019-05-26T13:36:31.389Z,24.76
2019-05-26T13:38:59.871Z,24.05
2019-05-26T13:41:28.282Z,24.12
2019-05-26T13:43:56.774Z,24.20
2019-05-26T13:46:25.194Z,23.61
2019-05-26T13:48:53.724Z,23.62
2019-05-26T13:51:22.243Z,23.63
2019-05-26T13:53:50.675Z,22.80
2019-05-26T13:56:19.205Z,22.75
2019-05-26T13:58:47.752Z,22.05
2019-05-26T14:01:16.457Z,22.45
2019-05-26T14:03:45.072Z,22.58
2019-05-26T14:06:13.567Z,22.92
2019-05-26T14:08:41.994Z,22.74
2019-05-26T14:11:10.525Z,22.62
2019-05-26T14:13:39.484Z,23.06
2019-05-26T14:16:08.033Z,23.13
2019-05-26T14:18:37.426Z,23.14
2019-05-26T14:21:05.943Z,23.30
2019-05-26T14:23:34.402Z,23.46
2019-05-26T14:26:02.932Z,23.09
2019-05-26T14:28:31.439Z,23.33
2019-05-26T14:30:59.980Z,23.30
2019-05-26T14:33:28.414Z,23.15
2019-05-26T14:35:57.022Z,23.10
2019-05-26T14:38:25.607Z,23.22
2019-05-26T14:40:54.101Z,23.22
2019-05-26T14:43:22.538Z,23.16
2019-05-26T14:45:53.712Z,23.15
2019-05-26T14:48:21.196Z,23.25
2019-05-26T14:50:49.640Z,23.25
2019-05-26T14:53:18.166Z,23.31
2019-05-26T14:55:46.675Z,22.92
2019-05-26T14:58:16.672Z,23.08
2019-05-26T15:00:45.470Z,23.11
2019-05-26T15:03:16.146Z,23.17
2019-05-26T15:05:44.587Z,23.45
2019-05-26T15:08:13.091Z,23.27
2019-05-26T15:10:41.692Z,23.24
2019-05-26T15:13:10.257Z,23.28
2019-05-26T15:15:38.694Z,23.05
2019-05-26T15:18:07.159Z,23.23
2019-05-26T15:20:35.699Z,23.34
2019-05-26T15:23:04.275Z,23.22
2019-05-26T15:25:32.859Z,23.04
2019-05-26T15:28:01.343Z,23.11
2019-05-26T15:30:29.899Z,23.18
2019-05-26T15:32:58.372Z,23.09
2019-05-26T15:35:26.883Z,22.90
2019-05-26T15:37:55.432Z,22.97
2019-05-26T15:40:24.051Z,22.81
2019-05-26T15:42:52.537Z,22.59
2019-05-26T15:45:21.159Z,22.59
2019-05-26T15:47:49.682Z,22.33
2019-05-26T15:50:18.478Z,22.06
2019-05-26T15:52:47.026Z,22.10
2019-05-26T15:55:15.610Z,22.09
2019-05-26T15:57:44.087Z,22.10
2019-05-26T16:00:13.161Z,22.06
2019-05-26T16:02:41.688Z,21.83
2019-05-26T16:05:11.132Z,21.83
2019-05-26T16:07:39.626Z,22.18
2019-05-26T16:10:08.636Z,22.22
2019-05-26T16:12:37.281Z,21.89
2019-05-26T16:15:08.249Z,21.53
2019-05-26T16:17:38.911Z,21.76
2019-05-26T16:20:08.190Z,21.60
2019-05-26T16:22:36.703Z,21.57
2019-05-26T16:25:07.646Z,21.54
2019-05-26T16:27:36.210Z,21.57
2019-05-26T16:30:09.707Z,21.60
2019-05-26T16:32:38.280Z,21.66
2019-05-26T16:35:07.647Z,21.54
2019-05-26T16:37:36.182Z,21.47
2019-05-26T16:40:06.278Z,21.35
2019-05-26T16:42:34.805Z,21.66
2019-05-26T16:45:04.288Z,21.88
2019-05-26T16:47:32.733Z,21.89
2019-05-26T16:50:01.192Z,21.97
2019-05-26T16:52:29.620Z,21.83
2019-05-26T16:54:58.077Z,21.95
2019-05-26T16:57:26.613Z,21.71
2019-05-26T16:59:55.058Z,21.76
2019-05-26T17:02:23.544Z,21.41
2019-05-26T17:04:52.080Z,21.27
2019-05-26T17:07:20.507Z,21.22
2019-05-26T17:09:48.975Z,21.03
2019-05-26T17:12:17.485Z,21.12
2019-05-26T17:14:45.955Z,21.00
2019-05-26T17:17:15.468Z,20.90
2019-05-26T17:19:44.032Z,20.78
2019-05-26T17:22:12.550Z,20.84
2019-05-26T17:24:41.030Z,21.03
2019-05-26T17:27:09.606Z,20.74
2019-05-26T17:29:38.207Z,20.79
2019-05-26T17:32:06.703Z,20.80
2019-05-26T17:34:35.508Z,20.66
2019-05-26T17:37:04.039Z,20.71
2019-05-26T17:39:32.508Z,20.70
2019-05-26T17:42:00.989Z,20.69
2019-05-26T17:44:29.572Z,20.56
2019-05-26T17:46:58.018Z,20.59
2019-05-26T17:49:26.635Z,20.33
2019-05-26T17:51:55.093Z,20.47
2019-05-26T17:54:23.600Z,20.24
2019-05-26T17:56:52.065Z,20.43
2019-05-26T17:59:20.668Z,20.23
2019-05-26T18:01:49.431Z,20.28
2019-05-26T18:04:17.970Z,20.23
2019-05-26T18:06:46.431Z,20.16
2019-05-26T18:09:15.075Z,20.09
2019-05-26T18:11:43.516Z,19.92
2019-05-26T18:14:11.951Z,19.93
2019-05-26T18:16:40.580Z,19.88
2019-05-26T18:19:09.185Z,19.81
2019-05-26T18:21:37.751Z,19.70
2019-05-26T18:24:06.350Z,19.68
2019-05-26T18:26:34.889Z,19.59
2019-05-26T18:29:03.585Z,19.53
2019-05-26T18:31:32.022Z,19.55
2019-05-26T18:34:00.534Z,19.47
2019-05-26T18:36:29.044Z,19.31
2019-05-26T18:38:57.492Z,19.38
2019-05-26T18:41:25.958Z,19.30
2019-05-26T18:43:54.546Z,19.19
2019-05-26T18:46:22.994Z,19.12
2019-05-26T18:48:51.559Z,19.00
2019-05-26T18:51:20.028Z,18.98
2019-05-26T18:53:48.542Z,18.87
2019-05-26T18:56:17.134Z,18.88
2019-05-26T18:58:45.632Z,18.82
2019-05-26T19:01:14.151Z,18.70
2019-05-26T19:03:42.603Z,18.49
2019-05-26T19:06:11.141Z,18.50
2019-05-26T19:08:39.732Z,18.38
2019-05-26T19:11:08.296Z,18.41
2019-05-26T19:13:36.855Z,18.19
2019-05-26T19:16:05.462Z,18.18
2019-05-26T19:18:33.880Z,18.24
2019-05-26T19:21:02.494Z,18.09
2019-05-26T19:23:31.024Z,18.15
2019-05-26T19:25:59.644Z,18.01
2019-05-26T19:28:28.083Z,18.01
2019-05-26T19:30:56.546Z,17.96
2019-05-26T19:33:25.145Z,17.80
2019-05-26T19:35:53.636Z,17.85
2019-05-26T19:38:22.130Z,17.66
2019-05-26T19:40:50.578Z,17.72
2019-05-26T19:43:19.023Z,17.39
2019-05-26T19:45:47.559Z,17.25
2019-05-26T19:48:16.073Z,16.92
2019-05-26T19:50:44.661Z,16.93
2019-05-26T19:53:13.128Z,16.95
2019-05-26T19:55:41.560Z,16.28
2019-05-26T19:58:10.167Z,15.78
2019-05-26T20:00:38.797Z,15.85
2019-05-26T20:03:07.366Z,15.85
2019-05-26T20:05:35.822Z,16.16
2019-05-26T20:08:04.445Z,16.27
2019-05-26T20:10:32.915Z,16.29
2019-05-26T20:13:01.409Z,16.22
2019-05-26T20:15:29.930Z,15.48
2019-05-26T20:17:58.497Z,15.43
2019-05-26T20:20:27.025Z,15.36
2019-05-26T20:22:55.573Z,15.22
2019-05-26T20:25:24.174Z,15.16
2019-05-26T20:27:52.591Z,15.31
2019-05-26T20:30:22.432Z,15.19
2019-05-26T20:32:51.595Z,14.84
2019-05-26T20:35:20.087Z,14.87
2019-05-26T20:37:48.536Z,15.24
2019-05-26T20:40:17.451Z,15.16
2019-05-26T20:42:45.860Z,14.94
2019-05-26T20:45:14.731Z,14.58
2019-05-26T20:47:43.230Z,14.47
2019-05-26T20:50:27.621Z,14.47
2019-05-26T20:52:42.220Z,14.65
2019-05-26T20:55:10.831Z,14.81
2019-05-26T20:57:39.356Z,14.52
2019-05-26T21:00:10.647Z,14.15
2019-05-26T21:02:39.809Z,14.30
2019-05-26T21:05:09.281Z,14.56
2019-05-26T21:07:37.717Z,14.17
2019-05-26T21:10:07.135Z,14.25
2019-05-26T21:12:35.714Z,13.74
2019-05-26T21:15:05.001Z,13.77
2019-05-26T21:17:33.417Z,14.09
2019-05-26T21:20:02.097Z,13.90
2019-05-26T21:22:30.537Z,13.44
2019-05-26T21:24:58.968Z,13.58
2019-05-26T21:27:27.420Z,13.34
2019-05-26T21:29:55.872Z,13.37
2019-05-26T21:32:24.376Z,13.28
2019-05-26T21:34:52.847Z,13.52
2019-05-26T21:37:21.272Z,13.58
2019-05-26T21:39:49.699Z,13.72
2019-05-26T21:42:18.218Z,13.93
2019-05-26T21:44:46.669Z,13.92
2019-05-26T21:47:15.601Z,14.02
2019-05-26T21:49:44.096Z,14.05
2019-05-26T21:52:12.644Z,14.09
2019-05-26T21:54:41.455Z,14.14
2019-05-26T21:57:09.936Z,13.72
2019-05-26T21:59:38.401Z,13.32
2019-05-26T22:02:06.969Z,13.28
2019-05-26T22:04:35.475Z,12.90
2019-05-26T22:07:03.982Z,12.74
2019-05-26T22:09:33.304Z,12.80
2019-05-26T22:12:01.845Z,12.98
2019-05-26T22:14:30.369Z,12.94
2019-05-26T22:16:58.794Z,12.57
2019-05-26T22:19:27.248Z,12.78
2019-05-26T22:21:55.679Z,12.52
2019-05-26T22:24:24.138Z,12.74
2019-05-26T22:26:52.588Z,12.65
2019-05-26T22:29:21.047Z,12.45
2019-05-26T22:31:49.555Z,12.32
2019-05-26T22:34:18.179Z,12.28
2019-05-26T22:36:46.728Z,12.39
2019-05-26T22:39:15.185Z,12.46
2019-05-26T22:41:43.701Z,12.65
2019-05-26T22:44:12.119Z,12.53
2019-05-26T22:46:40.581Z,12.62
2019-05-26T22:49:09.113Z,12.71
2019-05-26T22:51:37.563Z,12.60
2019-05-26T22:54:06.115Z,12.46
2019-05-26T22:56:34.563Z,12.28
2019-05-26T22:59:03.019Z,12.41
2019-05-26T23:01:31.493Z,12.13
2019-05-26T23:04:03.038Z,11.94
2019-05-26T23:06:30.168Z,11.77
2019-05-26T23:08:58.675Z,11.62
2019-05-26T23:11:27.085Z,11.63
2019-05-26T23:13:55.528Z,11.69
2019-05-26T23:16:23.977Z,11.78
2019-05-26T23:18:52.470Z,11.71
2019-05-26T23:21:20.911Z,11.77
2019-05-26T23:23:49.361Z,11.82
2019-05-26T23:26:17.779Z,11.69
2019-05-26T23:28:46.221Z,11.50
2019-05-26T23:31:14.818Z,11.47
2019-05-26T23:33:43.337Z,11.71
2019-05-26T23:36:11.780Z,11.35
2019-05-26T23:38:40.237Z,11.12
2019-05-26T23:41:08.679Z,11.17
2019-05-26T23:43:37.198Z,11.15
2019-05-26T23:46:05.694Z,11.15
2019-05-26T23:48:34.111Z,11.10
2019-05-26T23:51:02.583Z,11.02
2019-05-26T23:53:30.994Z,10.95
2019-05-26T23:55:59.446Z,10.94
2019-05-26T23:58:27.876Z,10.99
